Home > Products > Valid Products > TAF

000
FTUS44 KTSA 211700
TAFFYV
TAF
KFYV 211720Z 2118/2218 VRB03KT P6SM FEW050
     FM220000 00000KT P6SM SCT040
     FM220400 00000KT 2SM BR SCT040
     FM220900 00000KT 1/2SM FG BKN005
     FM221500 15004KT P6SM SCT025=



000
FTUS44 KTSA 211700
TAFRVS
TAF
KRVS 211720Z 2118/2218 14006KT P6SM SCT060
     FM220000 00000KT P6SM SCT050
     FM220800 00000KT 4SM BR SCT030
     FM221400 16005KT P6SM SCT040=



000
FTUS44 KTSA 211700
TAFXNA
TAF
KXNA 211720Z 2118/2218 VRB03KT P6SM FEW050
     FM220000 00000KT P6SM SCT040
     FM220400 00000KT 2SM BR SCT040
     FM220900 00000KT 1/2SM FG BKN005
     FM221500 15004KT P6SM SCT025=



000
FTUS44 KTSA 211700
TAFTUL
TAF
KTUL 211720Z 2118/2218 14007KT P6SM SCT060
     FM220000 14003KT P6SM SCT050
     FM221500 16008KT P6SM SCT040=



000
FTUS44 KTSA 211700
TAFFSM
TAF
KFSM 211720Z 2118/2218 08005KT P6SM SCT050
     FM220000 00000KT P6SM SCT040
     FM220800 00000KT 4SM BR SCT030
     FM221400 06004KT P6SM SCT040=



000
FTUS44 KTSA 211700
TAFMLC
TAF
KMLC 211720Z 2118/2218 15003KT P6SM BKN050
     FM220000 00000KT P6SM SCT040
     FM220800 00000KT 5SM BR SCT030
     FM221400 14005KT P6SM SCT040=



000
FTUS44 KTSA 211600 AAC
TAFXNA
TAF AMD
KXNA 211637Z 2117/2212 VRB03KT P6SM SCT040
     FM220000 00000KT P6SM SCT040
     FM220400 00000KT 2SM BR SCT040=



000
FTUS44 KTSA 211500 AAB
TAFXNA
TAF AMD
KXNA 211554Z 2116/2212 VRB03KT 2SM BR BKN002
      TEMPO 2116/2117 4SM BR SCT002
     FM211700 VRB03KT P6SM SCT040
     FM220000 00000KT P6SM SCT040
     FM220400 00000KT 2SM BR SCT040=



000
FTUS44 KTSA 211500 AAB
TAFXNA
TAF AMD
KXNA 211554Z 2116/2212 VRB03KT 2SM BR BKN002
      TEMPO 2116/2117 4SM BR SCT002
     FM211700 VRB03KT P6SM SCT040
     FM220000 00000KT P6SM SCT040
     FM220400 00000KT 2SM BR SCT040=



000
FTUS44 KTSA 211500 AAB
TAFFYV
TAF AMD
KFYV 211539Z 2116/2212 VRB03KT P6SM SCT040
     FM220000 00000KT P6SM SCT040
     FM220400 00000KT 2SM BR SCT040=



000
FTUS44 KTSA 211500 AAB
TAFFYV
TAF AMD
KFYV 211539Z 2116/2212 VRB03KT P6SM SCT040
     FM220000 00000KT P6SM SCT040
     FM220400 00000KT 2SM BR SCT040=



000
FTUS44 KTSA 211500 AAA
TAFXNA
TAF AMD
KXNA 211505Z 2115/2212 00000KT 1/4SM FG VV002
      TEMPO 2115/2116 3SM BR SCT002
     FM211600 VRB03KT P6SM SCT040
     FM220000 00000KT P6SM SCT040
     FM220400 00000KT 2SM BR SCT040=



000
FTUS44 KTSA 211500 AAA
TAFFYV
TAF AMD
KFYV 211502Z 2115/2212 00000KT 2SM BR BKN002
      TEMPO 2115/2116 5SM BR SCT002
     FM211600 VRB03KT P6SM SCT040
     FM220000 00000KT P6SM SCT040
     FM220400 00000KT 2SM BR SCT040=



000
FTUS44 KTSA 211300 AAA
TAFRVS
TAF AMD
KRVS 211352Z 2114/2212 00000KT 5SM BR SCT040
     FM211500 14004KT P6SM SCT040
     FM220000 00000KT P6SM SCT040
     FM220800 00000KT 4SM BR SCT040=



000
FTUS44 KTSA 211100
TAFXNA
TAF
KXNA 211126Z 2112/2212 00000KT 1/4SM FG VV002
     FM211500 VRB03KT P6SM SCT040
     FM220000 00000KT P6SM SCT040
     FM220400 00000KT 2SM BR SCT040=



000
FTUS44 KTSA 211100
TAFFSM
TAF
KFSM 211126Z 2112/2212 00000KT P6SM BKN040
      TEMPO 2112/2115 4SM BR SCT040
     FM211500 06003KT P6SM SCT040
     FM220000 00000KT P6SM SCT040
     FM220800 00000KT 4SM BR SCT040=



000
FTUS44 KTSA 211100
TAFRVS
TAF
KRVS 211126Z 2112/2212 00000KT 3SM BR SCT040
      TEMPO 2112/2114 1SM BR
     FM211500 14004KT P6SM SCT040
     FM220000 00000KT P6SM SCT040
     FM220800 00000KT 4SM BR SCT040=



000
FTUS44 KTSA 211100
TAFFYV
TAF
KFYV 211126Z 2112/2212 00000KT 1/4SM FG VV002
     FM211500 VRB03KT P6SM SCT040
     FM220000 00000KT P6SM SCT040
     FM220400 00000KT 2SM BR SCT040=



000
FTUS44 KTSA 211100
TAFMLC
TAF
KMLC 211126Z 2112/2212 00000KT 4SM BR SCT040
      TEMPO 2112/2114 2SM BR
     FM211500 15003KT P6SM SCT040
     FM220000 00000KT P6SM SCT040
     FM220800 00000KT 5SM BR SCT040=



000
FTUS44 KTSA 211100
TAFTUL
TAF
KTUL 211126Z 2112/2212 14004KT P6SM SCT040
      TEMPO 2112/2114 4SM BR
     FM220000 14003KT P6SM SCT040=



000
FTUS44 KTSA 211100
TAFFYV
TAF
KFYV 211126Z 2112/2212 00000KT 1/4SM FG VV002
     FM211500 VRB03KT P6SM SCT040
     FM220000 00000KT P6SM SCT040
     FM220400 00000KT 2SM BR SCT040=



000
FTUS44 KTSA 211100
TAFXNA
TAF
KXNA 211126Z 2112/2212 00000KT 1/4SM FG VV002
     FM211500 VRB03KT P6SM SCT040
     FM220000 00000KT P6SM SCT040
     FM220400 00000KT 2SM BR SCT040=



000
FTUS44 KTSA 211100
TAFRVS
TAF
KRVS 211126Z 2112/2212 00000KT 3SM BR SCT040
      TEMPO 2112/2114 1SM BR
     FM211500 14004KT P6SM SCT040
     FM220000 00000KT P6SM SCT040
     FM220800 00000KT 4SM BR SCT040=



000
FTUS44 KTSA 211100
TAFTUL
TAF
KTUL 211126Z 2112/2212 14004KT P6SM SCT040
      TEMPO 2112/2114 4SM BR
     FM220000 14003KT P6SM SCT040=



000
FTUS44 KTSA 211100
TAFFSM
TAF
KFSM 211126Z 2112/2212 00000KT P6SM BKN040
      TEMPO 2112/2115 4SM BR SCT040
     FM211500 06003KT P6SM SCT040
     FM220000 00000KT P6SM SCT040
     FM220800 00000KT 4SM BR SCT040=



000
FTUS44 KTSA 211100
TAFMLC
TAF
KMLC 211126Z 2112/2212 00000KT 4SM BR SCT040
      TEMPO 2112/2114 2SM BR
     FM211500 15003KT P6SM SCT040
     FM220000 00000KT P6SM SCT040
     FM220800 00000KT 5SM BR SCT040=



000
FTUS44 KTSA 210500
TAFRVS
TAF
KRVS 210520Z 2106/2206 14004KT P6SM SCT050 BKN060
     FM210900 00000KT 3SM BR SKC
      TEMPO 2109/2113 1SM BR
     FM211500 15005KT P6SM SCT250=



000
FTUS44 KTSA 210500
TAFFYV
TAF
KFYV 210520Z 2106/2206 00000KT 1/4SM FG VV001
     FM211600 12002KT 2SM BR BKN008
     FM211800 VRB03KT P6SM FEW250=



000
FTUS44 KTSA 210500
TAFFSM
TAF
KFSM 210520Z 2106/2206 00000KT P6SM SKC
     FM210800 00000KT 4SM BR SKC
     FM211100 00000KT 1/4SM FG BKN002
     FM211400 07003KT 4SM BR BKN250
     FM211500 09004KT P6SM BKN250=



000
FTUS44 KTSA 210500
TAFMLC
TAF
KMLC 210520Z 2106/2206 00000KT P6SM SKC
     FM210900 00000KT 5SM BR SKC
     FM211100 00000KT 2SM BR SKC
      TEMPO 2111/2115 1SM BR BKN002
     FM211500 17003KT P6SM FEW250=



000
FTUS44 KTSA 210500
TAFTUL
TAF
KTUL 210520Z 2106/2206 14004KT P6SM SCT050 BKN060
     FM210900 00000KT 5SM BR SKC
      TEMPO 2109/2113 2SM BR
     FM211400 15005KT P6SM SCT250=



000
FTUS44 KTSA 210500
TAFXNA
TAF
KXNA 210520Z 2106/2206 00000KT 1/4SM FG VV001
     FM211600 12002KT 2SM BR BKN008
     FM211800 VRB03KT P6SM FEW250=



000
FTUS44 KTSA 210300 AAC
TAFXNA
TAF AMD
KXNA 210347Z 2104/2124 00000KT 1/4SM FG VV001
     FM211600 12002KT 2SM BR SCT250
     FM211800 VRB03KT P6SM FEW250=



000
FTUS44 KTSA 210300 AAB
TAFXNA
TAF AMD
KXNA 210342Z 2104/2124 00000KT 1SM BR VV008
      TEMPO 2104/2106 1/4SM FG VV001
     FM210600 00000KT 1/4SM FG VV001
     FM211600 12002KT 2SM BR SCT250
     FM211800 VRB03KT P6SM FEW250=



000
FTUS44 KTSA 210300 AAB
TAFXNA
TAF AMD
KXNA 210342Z 2104/2124 00000KT 1SM BR VV008
      TEMPO 2104/2106 1/4SM FG VV001
     FM210600 00000KT 1/4SM FG VV001
     FM211600 12002KT 2SM BR SCT250
     FM211800 VRB03KT P6SM FEW250=



000
FTUS44 KTSA 210300 AAE
TAFFYV
TAF AMD
KFYV 210302Z 2103/2124 00000KT 1/4SM FG VV001
      TEMPO 2103/2106 2SM BR SCT002
     FM211600 12002KT 2SM BR SCT250
     FM211800 VRB03KT P6SM FEW250=



000
FTUS44 KTSA 210300 AAE
TAFFYV
TAF AMD
KFYV 210302Z 2103/2124 00000KT 1/4SM FG VV001
      TEMPO 2103/2106 2SM BR SCT002
     FM211600 12002KT 2SM BR SCT250
     FM211800 VRB03KT P6SM FEW250=



000
FTUS44 KTSA 210300 AAA
TAFXNA
TAF AMD
KXNA 210302Z 2103/2124 00000KT 1SM BR FEW011
      TEMPO 2103/2106 1/4SM FG VV001
     FM210600 00000KT 1/4SM FG VV001
     FM211600 12002KT 2SM BR SCT250
     FM211800 VRB03KT P6SM FEW250=



000
FTUS44 KTSA 210300 AAA
TAFXNA
TAF AMD
KXNA 210302Z 2103/2124 00000KT 1SM BR FEW011
      TEMPO 2103/2106 1/4SM FG VV001
     FM210600 00000KT 1/4SM FG VV001
     FM211600 12002KT 2SM BR SCT250
     FM211800 VRB03KT P6SM FEW250=



000
FTUS44 KTSA 210100 AAD
TAFFYV
TAF AMD
KFYV 210156Z 2102/2124 00000KT 5SM BR SKC
      TEMPO 2102/2104 1SM BR BKN002
     FM210400 00000KT 1SM BR BKN250
     FM210500 00000KT 1/4SM FG VV001
     FM211600 12002KT 2SM BR SCT250
     FM211800 VRB03KT P6SM FEW250=



000
FTUS44 KTSA 210100 AAD
TAFFYV
TAF AMD
KFYV 210156Z 2102/2124 00000KT 5SM BR SKC
      TEMPO 2102/2104 1SM BR BKN002
     FM210400 00000KT 1SM BR BKN250
     FM210500 00000KT 1/4SM FG VV001
     FM211600 12002KT 2SM BR SCT250
     FM211800 VRB03KT P6SM FEW250=



000
FTUS44 KTSA 210000 AAC
TAFFYV
TAF AMD
KFYV 210049Z 2101/2124 00000KT 3SM BR SKC
      TEMPO 2101/2103 1SM BR BKN002
     FM210300 00000KT 1SM BR BKN250
     FM210400 00000KT 1/4SM FG VV001
     FM211600 12002KT 2SM BR SCT250
     FM211800 VRB03KT P6SM FEW250=



000
FTUS44 KTSA 210000 AAB
TAFFYV
TAF AMD
KFYV 210045Z 2101/2124 00000KT 3SM BR SKC
      TEMPO 2101/2103 1SM BR BKN002
     FM210300 00000KT 1SM BR BKN250
     FM210400 00000KT 1/4SM FG VV001
     FM211600 12002KT 2SM BR SCT250
     FM211800 VRB03KT P6SM FEW250=



000
FTUS44 KTSA 210000 AAA
TAFFYV
TAF AMD
KFYV 210014Z 2100/2124 00000KT P6SM SKC
     FM210400 00000KT 2SM BR BKN250
     FM210700 00000KT 1/4SM FG VV001
     FM211600 12002KT 2SM BR SCT250
     FM211800 VRB03KT P6SM FEW250=



000
FTUS44 KTSA 202300
TAFFYV
TAF
KFYV 202338Z 2100/2124 00000KT P6SM SKC
      TEMPO 2100/2101 BKN023
     FM210400 00000KT 2SM BR BKN250
     FM210700 00000KT 1/4SM FG VV001
     FM211600 12002KT 2SM BR SCT250
     FM211800 VRB03KT P6SM FEW250=



000
FTUS44 KTSA 202300
TAFFSM
TAF
KFSM 202338Z 2100/2124 00000KT P6SM SKC
     FM210700 00000KT 4SM BR SKC
     FM211100 00000KT 1/4SM FG BKN002
     FM211400 07003KT 4SM BR BKN250
     FM211500 09004KT P6SM BKN250=



000
FTUS44 KTSA 202300
TAFTUL
TAF
KTUL 202338Z 2100/2124 11003KT P6SM SKC
     FM210900 00000KT 5SM BR SKC
      TEMPO 2109/2113 2SM BR
     FM211400 14003KT P6SM SCT250=



000
FTUS44 KTSA 202300
TAFMLC
TAF
KMLC 202338Z 2100/2124 00000KT P6SM SKC
     FM210900 00000KT 5SM BR SKC
     FM211100 00000KT 2SM BR SKC
      TEMPO 2111/2113 1SM BR BKN002
     FM211500 17003KT P6SM FEW250=



000
FTUS44 KTSA 202300
TAFXNA
TAF
KXNA 202338Z 2100/2124 00000KT P6SM SKC
     FM210400 00000KT 2SM BR BKN250
     FM210700 00000KT 1/4SM FG VV001
     FM211600 12002KT 2SM BR SCT250
     FM211800 VRB03KT P6SM FEW250=



000
FTUS44 KTSA 202300
TAFRVS
TAF
KRVS 202338Z 2100/2124 00000KT P6SM SCT250
     FM210900 00000KT 3SM BR FEW250
      TEMPO 2109/2111 1SM BR
     FM211100 16002KT 2SM BR FEW250
     FM211500 15004KT P6SM FEW250=



000
FTUS44 KTSA 202000 AAA
TAFFYV
TAF AMD
KFYV 202004Z 2020/2118 28005KT P6SM BKN025
     FM210100 00000KT P6SM SCT250
     FM210600 00000KT 4SM BR SCT040
     FM210800 00000KT 1/2SM FG BKN002
     FM211400 VRB02KT 4SM BR SCT002 BKN035=



000
FTUS44 KTSA 202000 AAA
TAFXNA
TAF AMD
KXNA 202004Z 2020/2118 26005KT P6SM BKN025
     FM210200 VRB03KT P6SM SCT250
     FM210800 00000KT 1/2SM FG BKN002
     FM211400 VRB02KT 4SM BR SCT002 BKN035=



000
FTUS44 KTSA 201700
TAFRVS
TAF
KRVS 201720Z 2018/2118 20004KT P6SM SCT050
     FM202100 06004KT P6SM BKN060
     FM210900 08003KT 4SM BR BKN040
      TEMPO 2110/2113 1SM BR
     FM211400 14005KT P6SM BKN025=



000
FTUS44 KTSA 201700
TAFFYV
TAF
KFYV 201720Z 2018/2118 22006KT P6SM OVC035
     FM202000 28005KT P6SM BKN100
     FM210100 00000KT P6SM SCT250
     FM210600 00000KT 4SM BR SCT040
     FM210800 00000KT 1/2SM FG BKN002
     FM211400 VRB02KT 4SM BR SCT002 BKN035=



000
FTUS44 KTSA 201700
TAFTUL
TAF
KTUL 201720Z 2018/2118 18004KT P6SM SCT050
     FM202100 06004KT P6SM BKN060
     FM210900 08003KT 4SM BR BKN040
     FM211400 14005KT P6SM BKN025=



000
FTUS44 KTSA 201700
TAFFSM
TAF
KFSM 201720Z 2018/2118 28004KT P6SM OVC050
     FM202100 28004KT P6SM SCT100
     FM210000 VRB03KT P6SM SCT250
     FM210800 00000KT 3SM BR SCT250
      TEMPO 2110/2113 1SM BR BKN005
     FM211400 VRB03KT P6SM BKN035=



000
FTUS44 KTSA 201700
TAFMLC
TAF
KMLC 201720Z 2018/2118 20008KT P6SM BKN060
     FM210000 14003KT P6SM SCT250
     FM211000 14003KT P6SM BKN035=



000
FTUS44 KTSA 201700
TAFXNA
TAF
KXNA 201720Z 2018/2118 20005KT P6SM OVC035
     FM202000 29005KT P6SM BKN100
     FM210200 VRB03KT P6SM SCT250
     FM210800 00000KT 1/2SM FG BKN002
     FM211400 VRB02KT 4SM BR SCT002 BKN035=



000
FTUS44 KTSA 201400 AAA
TAFFYV
TAF AMD
KFYV 201422Z 2014/2112 00000KT 5SM -SHRA OVC040
      TEMPO 2014/2015 2SM +SHRA OVC025
     FM201500 22006KT P6SM OVC050
     FM202100 28005KT P6SM BKN100
     FM210100 00000KT P6SM SCT250
     FM210600 00000KT 4SM BR SKC
      TEMPO 2108/2112 1/2SM FG VV002=



000
FTUS44 KTSA 201100
TAFTUL
TAF
KTUL 201131Z 2012/2112 10004KT P6SM VCTS BKN050CB
      TEMPO 2012/2014 3SM -TSRA BR BKN040CB
     FM201500 21004KT P6SM BKN050
     FM210000 VRB03KT P6SM SCT250=



000
FTUS44 KTSA 201100
TAFFYV
TAF
KFYV 201131Z 2012/2112 00000KT P6SM VCSH BKN040
     FM201500 22006KT P6SM OVC050
     FM202100 28005KT P6SM BKN100
     FM210100 00000KT P6SM SCT250
     FM210600 00000KT 4SM BR SKC
      TEMPO 2108/2112 1/2SM FG VV002=



000
FTUS44 KTSA 201100
TAFRVS
TAF
KRVS 201131Z 2012/2112 10003KT P6SM VCTS BKN060CB
      TEMPO 2012/2014 3SM -TSRA BR BKN040CB
     FM201500 20003KT P6SM BKN050
     FM210000 00000KT P6SM SCT250=



000
FTUS44 KTSA 201100
TAFMLC
TAF
KMLC 201131Z 2012/2112 20003KT P6SM BKN250
     FM201500 20006KT P6SM SCT050
     FM210000 VRB03KT P6SM SCT250=



000
FTUS44 KTSA 201100
TAFFSM
TAF
KFSM 201131Z 2012/2112 05003KT P6SM VCSH BKN050
     FM201600 28004KT P6SM BKN050
     FM210000 VRB03KT P6SM SCT250
      TEMPO 2108/2112 4SM BR=



000
FTUS44 KTSA 201100
TAFXNA
TAF
KXNA 201131Z 2012/2112 19004KT P6SM VCSH BKN027
     FM201400 20005KT P6SM OVC035
     FM202200 29005KT P6SM BKN100
     FM210200 VRB03KT P6SM SCT250
     FM210600 VRB03KT 4SM BR SKC
      TEMPO 2108/2112 1SM BR=



000
FTUS44 KTSA 201000 AAB
TAFFYV
TAF AMD
KFYV 201001Z 2010/2106 00000KT P6SM VCSH BKN040
     FM201500 22006KT P6SM OVC050
     FM202200 28005KT P6SM BKN100
     FM210100 00000KT P6SM SCT250=



000
FTUS44 KTSA 201000 AAB
TAFFYV
TAF AMD
KFYV 201001Z 2010/2106 00000KT P6SM VCSH BKN040
     FM201500 22006KT P6SM OVC050
     FM202200 28005KT P6SM BKN100
     FM210100 00000KT P6SM SCT250=



000
FTUS44 KTSA 201000 AAB
TAFXNA
TAF AMD
KXNA 201000Z 2010/2106 19004KT P6SM VCSH BKN027 OVC035
     FM201400 20005KT P6SM OVC035
     FM202200 29005KT P6SM BKN100
     FM210200 VRB03KT P6SM SCT250=



000
FTUS44 KTSA 201000 AAB
TAFXNA
TAF AMD
KXNA 201000Z 2010/2106 19004KT P6SM VCSH BKN027 OVC035
     FM201400 20005KT P6SM OVC035
     FM202200 29005KT P6SM BKN100
     FM210200 VRB03KT P6SM SCT250=



000
FTUS44 KTSA 200900 AAA
TAFRVS
TAF AMD
KRVS 200957Z 2010/2106 00000KT P6SM VCTS BKN060CB
      TEMPO 2010/2012 3SM -TSRA BR BKN040CB
     FM201500 20006KT P6SM BKN050
     FM210000 00000KT P6SM SCT250=



000
FTUS44 KTSA 200900 AAA
TAFRVS
TAF AMD
KRVS 200957Z 2010/2106 00000KT P6SM VCTS BKN060CB
      TEMPO 2010/2012 3SM -TSRA BR BKN040CB
     FM201500 20006KT P6SM BKN050
     FM210000 00000KT P6SM SCT250=



000
FTUS44 KTSA 200900 AAA
TAFTUL
TAF AMD
KTUL 200955Z 2010/2106 11004KT P6SM VCTS FEW050CB SCT070 BKN120
      TEMPO 2010/2012 3SM -TSRA BR BKN040CB
     FM201500 20008KT P6SM BKN050
     FM210000 VRB03KT P6SM SCT250=



000
FTUS44 KTSA 200900 AAA
TAFTUL
TAF AMD
KTUL 200955Z 2010/2106 11004KT P6SM VCTS FEW050CB SCT070 BKN120
      TEMPO 2010/2012 3SM -TSRA BR BKN040CB
     FM201500 20008KT P6SM BKN050
     FM210000 VRB03KT P6SM SCT250=



000
FTUS44 KTSA 200800 AAA
TAFFYV
TAF AMD
KFYV 200843Z 2009/2106 00000KT P6SM VCSH BKN050
      TEMPO 2009/2011 2SM RA BKN030
     FM201200 VRB03KT P6SM BKN040
     FM201500 20004KT P6SM OVC035=



000
FTUS44 KTSA 200800 AAA
TAFXNA
TAF AMD
KXNA 200842Z 2009/2106 25005KT 5SM -RA FEW030 BKN050
      TEMPO 2009/2011 1SM RA BKN030
     FM201200 06003KT P6SM BKN040
     FM201500 20005KT P6SM OVC035=



000
FTUS44 KTSA 200500
TAFRVS
TAF
KRVS 200520Z 2006/2106 17006KT P6SM VCSH BKN060
     FM201500 20006KT P6SM SCT060=



000
FTUS44 KTSA 200500
TAFMLC
TAF
KMLC 200520Z 2006/2106 VRB03KT P6SM SCT100
     FM201500 20006KT P6SM BKN050=



000
FTUS44 KTSA 200500
TAFTUL
TAF
KTUL 200520Z 2006/2106 17007KT P6SM VCSH BKN060
     FM201500 20008KT P6SM SCT060=



000
FTUS44 KTSA 200500
TAFXNA
TAF
KXNA 200520Z 2006/2106 VRB03KT P6SM VCSH BKN040 BKN100
     FM201200 06003KT P6SM BKN040
     FM201500 20005KT P6SM OVC035=



000
FTUS44 KTSA 200500
TAFFYV
TAF
KFYV 200520Z 2006/2106 VRB03KT P6SM VCSH BKN040 BKN100
     FM201200 VRB03KT P6SM BKN040
     FM201500 20004KT P6SM OVC035=



000
FTUS44 KTSA 200500
TAFFSM
TAF
KFSM 200520Z 2006/2106 10003KT P6SM SCT120 BKN200
     FM201200 06003KT P6SM BKN100
     FM201500 06003KT P6SM BKN035=



000
FTUS44 KTSA 192300
TAFFYV
TAF
KFYV 192320Z 2000/2024 19007KT P6SM SCT120 BKN200
     FM200100 VRB03KT P6SM SCT100
     FM200900 VRB03KT P6SM BKN040 PROB30 2009/2015 -SHRA BKN025
     FM201500 20004KT P6SM OVC035=



000
FTUS44 KTSA 192300
TAFMLC
TAF
KMLC 192320Z 2000/2024 16005KT P6SM SCT150 SCT250
     FM200200 VRB03KT P6SM SCT100
     FM201500 20006KT P6SM BKN050=



000
FTUS44 KTSA 192300
TAFRVS
TAF
KRVS 192320Z 2000/2024 18006KT P6SM SCT120 SCT250
     FM200300 17006KT P6SM VCSH BKN060
     FM201500 20006KT P6SM SCT060=



000
FTUS44 KTSA 192300
TAFTUL
TAF
KTUL 192320Z 2000/2024 17008KT P6SM SCT120 SCT250
     FM200300 17007KT P6SM VCSH BKN060
     FM201500 20008KT P6SM SCT060=



000
FTUS44 KTSA 192300
TAFFSM
TAF
KFSM 192320Z 2000/2024 10003KT P6SM SCT120 BKN200
     FM200900 06003KT P6SM BKN100
     FM201500 06003KT P6SM BKN050=



000
FTUS44 KTSA 192300
TAFMLC
TAF
KMLC 192320Z 2000/2024 16005KT P6SM SCT150 SCT250
     FM200200 VRB03KT P6SM SCT100
     FM201500 20006KT P6SM BKN050=



000
FTUS44 KTSA 192300
TAFFYV
TAF
KFYV 192320Z 2000/2024 19007KT P6SM SCT120 BKN200
     FM200100 VRB03KT P6SM SCT100
     FM200900 VRB03KT P6SM BKN040 PROB30 2009/2015 -SHRA BKN025
     FM201500 20004KT P6SM OVC035=



000
FTUS44 KTSA 192300
TAFRVS
TAF
KRVS 192320Z 2000/2024 18006KT P6SM SCT120 SCT250
     FM200300 17006KT P6SM VCSH BKN060
     FM201500 20006KT P6SM SCT060=



000
FTUS44 KTSA 192300
TAFXNA
TAF
KXNA 192320Z 2000/2024 20006KT P6SM SCT120 BKN200
     FM200100 VRB03KT P6SM SCT100
     FM200900 VRB03KT P6SM BKN040 PROB30 2009/2015 -SHRA BKN025
     FM201500 20005KT P6SM OVC035=



000
FTUS44 KTSA 192300
TAFFSM
TAF
KFSM 192320Z 2000/2024 10003KT P6SM SCT120 BKN200
     FM200900 06003KT P6SM BKN100
     FM201500 06003KT P6SM BKN050=



000
FTUS44 KTSA 192300
TAFTUL
TAF
KTUL 192320Z 2000/2024 17008KT P6SM SCT120 SCT250
     FM200300 17007KT P6SM VCSH BKN060
     FM201500 20008KT P6SM SCT060=



000
FTUS44 KTSA 192300
TAFXNA
TAF
KXNA 192320Z 2000/2024 20006KT P6SM SCT120 BKN200
     FM200100 VRB03KT P6SM SCT100
     FM200900 VRB03KT P6SM BKN040 PROB30 2009/2015 -SHRA BKN025
     FM201500 20005KT P6SM OVC035=



000
FTUS44 KTSA 191700
TAFRVS
TAF
KRVS 191720Z 1918/2018 17006KT P6SM SCT120 SCT250
     FM200300 17006KT P6SM BKN060 PROB30 2005/2011 6SM -SHRA BKN040
     FM201500 20006KT P6SM SCT060=



000
FTUS44 KTSA 191700
TAFTUL
TAF
KTUL 191720Z 1918/2018 17008KT P6SM SCT120 SCT250
     FM200300 17007KT P6SM BKN060 PROB30 2005/2011 6SM -SHRA BKN040
     FM201500 20008KT P6SM SCT060=



000
FTUS44 KTSA 191700
TAFFSM
TAF
KFSM 191720Z 1918/2018 09005KT P6SM SCT150 BKN200
     FM200900 06003KT P6SM BKN100
     FM201500 06003KT P6SM BKN050=



000
FTUS44 KTSA 191700
TAFXNA
TAF
KXNA 191720Z 1918/2018 19010KT P6SM SCT150 BKN200
     FM200100 VRB03KT P6SM SCT100
     FM200900 VRB03KT P6SM BKN040 PROB30 2009/2015 -SHRA BKN025
     FM201500 20005KT P6SM OVC020=



000
FTUS44 KTSA 191700
TAFFYV
TAF
KFYV 191720Z 1918/2018 19011KT P6SM SCT150 BKN200
     FM200100 VRB03KT P6SM SCT100
     FM200900 VRB03KT P6SM BKN040 PROB30 2009/2015 -SHRA BKN025
     FM201500 20004KT P6SM OVC025=



000
FTUS44 KTSA 191700
TAFMLC
TAF
KMLC 191720Z 1918/2018 16005KT P6SM SCT150 SCT250
     FM200200 VRB03KT P6SM SCT100
     FM201500 20006KT P6SM BKN050=



000
FTUS44 KTSA 191300 AAA
TAFFYV
TAF AMD
KFYV 191342Z 1914/2012 00000KT P6SM BKN250
     FM191500 17005KT P6SM BKN200
     FM191900 20007KT P6SM SCT040 BKN100
     FM201000 VRB03KT P6SM BKN100=



000
FTUS44 KTSA 191100
TAFFSM
TAF
KFSM 191120Z 1912/2012 07004KT P6SM SKC
     FM191500 08006KT P6SM BKN200
     FM191900 12007KT P6SM BKN150
     FM200100 06003KT P6SM BKN100=



000
FTUS44 KTSA 191100
TAFFYV
TAF
KFYV 191120Z 1912/2012 00000KT P6SM BKN250
      TEMPO 1912/1914 2SM BR
     FM191500 17005KT P6SM BKN200
     FM191900 20007KT P6SM SCT040 BKN100
     FM201000 VRB03KT P6SM BKN100=



000
FTUS44 KTSA 191100
TAFRVS
TAF
KRVS 191120Z 1912/2012 00000KT P6SM BKN250
     FM191500 17006KT P6SM SCT025 BKN120
     FM191900 18008KT P6SM SCT040 BKN100
     FM200200 VRB03KT P6SM BKN060 PROB30 2006/2012 5SM -RA BR
      BKN040=



000
FTUS44 KTSA 191100
TAFMLC
TAF
KMLC 191120Z 1912/2012 00000KT P6SM BKN250
     FM191500 15006KT P6SM BKN150
     FM191900 17008KT P6SM SCT040 BKN120
     FM200200 VRB03KT P6SM BKN100=



000
FTUS44 KTSA 191100
TAFXNA
TAF
KXNA 191120Z 1912/2012 00000KT P6SM BKN250
     FM191500 16005KT P6SM BKN200
     FM191900 18007KT P6SM SCT040 BKN100
     FM200100 20004KT P6SM BKN100=



000
FTUS44 KTSA 191100
TAFTUL
TAF
KTUL 191120Z 1912/2012 00000KT P6SM BKN250
     FM191500 17008KT P6SM SCT025 BKN120
     FM191900 17010KT P6SM SCT040 BKN100
     FM200200 17007KT P6SM BKN060 PROB30 2006/2012 5SM -RA BR
      BKN040=



000
FTUS44 KTSA 191000 AAB
TAFFYV
TAF AMD
KFYV 191005Z 1910/2006 00000KT P6SM BKN250
      TEMPO 1910/1914 2SM BR
     FM191500 17005KT P6SM BKN200
     FM191900 18007KT P6SM BKN150=



000
FTUS44 KTSA 190600 AAA
TAFFYV
TAF AMD
KFYV 190658Z 1907/2006 00000KT 4SM BR BKN250
      TEMPO 1907/1911 1/2SM FG VV002
     FM191500 17005KT P6SM BKN200
     FM191900 18007KT P6SM BKN150=



000
FTUS44 KTSA 190500
TAFFSM
TAF
KFSM 190520Z 1906/2006 07003KT P6SM BKN250
     FM191500 08006KT P6SM BKN200
     FM191900 12007KT P6SM BKN150=



000
FTUS44 KTSA 190500
TAFXNA
TAF
KXNA 190520Z 1906/2006 VRB03KT P6SM BKN250
     FM191500 16005KT P6SM BKN200
     FM191900 18007KT P6SM BKN150=



000
FTUS44 KTSA 190500
TAFFYV
TAF
KFYV 190520Z 1906/2006 00000KT P6SM BKN250
      TEMPO 1906/1910 4SM BR
     FM191500 17005KT P6SM BKN200
     FM191900 18007KT P6SM BKN150=



000
FTUS44 KTSA 190500
TAFMLC
TAF
KMLC 190520Z 1906/2006 04003KT P6SM BKN250
     FM191500 15006KT P6SM BKN150
     FM191900 17008KT P6SM SCT040 BKN120
     FM200200 16004KT P6SM BKN100=



000
FTUS44 KTSA 190500
TAFTUL
TAF
KTUL 190520Z 1906/2006 05005KT P6SM BKN250
     FM191500 17008KT P6SM SCT025 BKN120
     FM191900 18010KT P6SM SCT040 BKN100
     FM200200 17007KT P6SM BKN060=



000
FTUS44 KTSA 190500
TAFRVS
TAF
KRVS 190520Z 1906/2006 03003KT P6SM BKN250
     FM191500 17006KT P6SM SCT025 BKN120
     FM191900 18008KT P6SM SCT040 BKN100
     FM200200 16004KT P6SM BKN060=



000
FTUS44 KTSA 182300
TAFRVS
TAF
KRVS 182320Z 1900/1924 VRB03KT P6SM BKN250
     FM191500 17006KT P6SM SCT025 BKN120
     FM191900 18008KT P6SM SCT040 BKN100=



000
FTUS44 KTSA 182300
TAFFYV
TAF
KFYV 182320Z 1900/1924 VRB03KT P6SM BKN250
     FM191500 17005KT P6SM BKN200
     FM191900 18007KT P6SM BKN150=



000
FTUS44 KTSA 182300
TAFXNA
TAF
KXNA 182320Z 1900/1924 02008KT P6SM BKN250
     FM190100 VRB03KT P6SM BKN250
     FM191500 16005KT P6SM BKN200
     FM191900 18007KT P6SM BKN150=



000
FTUS44 KTSA 182300
TAFTUL
TAF
KTUL 182320Z 1900/1924 05005KT P6SM BKN250
     FM191500 17008KT P6SM SCT025 BKN120
     FM191900 18010KT P6SM SCT040 BKN100=



000
FTUS44 KTSA 182300
TAFMLC
TAF
KMLC 182320Z 1900/1924 03008KT P6SM SCT250
     FM190200 04003KT P6SM BKN250
     FM191500 15006KT P6SM BKN150
     FM191900 17008KT P6SM SCT040 BKN120=



000
FTUS44 KTSA 182300
TAFFSM
TAF
KFSM 182320Z 1900/1924 02006KT P6SM SCT250
     FM190200 07003KT P6SM SCT250
     FM191500 08006KT P6SM BKN200
     FM191900 12007KT P6SM BKN150=



    US Dept of Commerce
    National Oceanic and Atmospheric Administration
    National Weather Service
    1325 East West Highway
    Silver Spring, MD 20910
    Page Author: NWS Internet Services Team
Disclaimer
Information Quality
Credits
Glossary
Privacy Policy
Freedom of Information Act (FOIA)
About Us
Career Opportunities